createdAt,value
2023-01-10T00:00:49.909Z,87
2023-01-10T00:04:46.710Z,87
2023-01-10T00:06:46.656Z,87
2023-01-10T00:08:46.665Z,87
2023-01-10T00:10:46.551Z,87
2023-01-10T00:12:46.675Z,87
2023-01-10T00:14:46.923Z,87
2023-01-10T00:16:49.949Z,87
2023-01-10T00:18:46.641Z,87
2023-01-10T00:20:53.123Z,87
2023-01-10T00:22:46.748Z,87
2023-01-10T00:24:46.795Z,87
2023-01-10T00:26:46.761Z,87
2023-01-10T00:28:46.740Z,87
2023-01-10T00:30:46.801Z,87
2023-01-10T00:32:46.818Z,87
2023-01-10T00:36:46.771Z,87
2023-01-10T00:38:49.947Z,87
2023-01-10T00:40:46.746Z,87
2023-01-10T00:42:46.781Z,87
2023-01-10T00:44:46.763Z,87
2023-01-10T00:46:46.785Z,87
2023-01-10T00:48:46.767Z,87
2023-01-10T00:50:46.680Z,87
2023-01-10T00:52:46.687Z,87
2023-01-10T00:54:46.693Z,87
2023-01-10T00:56:46.809Z,87
2023-01-10T00:58:46.828Z,87
2023-01-10T01:00:46.848Z,87
2023-01-10T01:02:46.843Z,87
2023-01-10T01:04:47.071Z,87
2023-01-10T01:06:46.747Z,87
2023-01-10T01:08:46.780Z,87
2023-01-10T01:10:46.768Z,87
2023-01-10T01:12:46.784Z,87
2023-01-10T01:14:49.923Z,87
2023-01-10T01:16:46.778Z,87
2023-01-10T01:18:48.299Z,87
2023-01-10T01:20:49.907Z,87
2023-01-10T01:22:46.794Z,87
2023-01-10T01:24:46.747Z,87
2023-01-10T01:26:49.929Z,87
2023-01-10T01:28:46.765Z,87
2023-01-10T01:30:46.833Z,87
2023-01-10T01:32:46.831Z,87
2023-01-10T01:34:46.782Z,87
2023-01-10T01:36:46.517Z,87
2023-01-10T01:38:50.274Z,87
2023-01-10T01:42:48.416Z,87
2023-01-10T01:44:49.793Z,87
2023-01-10T01:46:46.784Z,87
2023-01-10T01:48:46.507Z,87
2023-01-10T01:50:46.859Z,87
2023-01-10T01:52:46.430Z,87
2023-01-10T01:54:49.688Z,87
2023-01-10T01:56:49.627Z,87
2023-01-10T01:58:46.783Z,87
2023-01-10T02:00:48.399Z,87
2023-01-10T02:06:47.201Z,87
2023-01-10T02:08:46.877Z,87
2023-01-10T02:10:46.554Z,87
2023-01-10T02:12:46.783Z,87
2023-01-10T02:14:46.688Z,87
2023-01-10T02:16:46.805Z,87
2023-01-10T02:18:46.734Z,87
2023-01-10T02:22:46.805Z,87
2023-01-10T02:24:46.781Z,87
2023-01-10T02:26:46.829Z,87
2023-01-10T02:28:46.790Z,87
2023-01-10T02:34:48.402Z,87
2023-01-10T02:36:46.778Z,87
2023-01-10T02:38:50.020Z,87
2023-01-10T02:40:47.209Z,87
2023-01-10T02:42:46.846Z,87
2023-01-10T02:46:46.892Z,87
2023-01-10T02:48:46.818Z,87
2023-01-10T02:50:46.866Z,87
2023-01-10T02:52:46.802Z,87
2023-01-10T02:54:46.760Z,87
2023-01-10T02:56:53.326Z,87
2023-01-10T02:58:50.076Z,87
2023-01-10T03:00:46.797Z,87
2023-01-10T03:02:47.080Z,87
2023-01-10T03:04:46.769Z,87
2023-01-10T03:06:46.729Z,87
2023-01-10T03:08:46.830Z,87
2023-01-10T03:12:46.814Z,87
2023-01-10T03:14:53.187Z,87
2023-01-10T03:16:49.723Z,87
2023-01-10T03:18:46.823Z,87
2023-01-10T03:20:46.840Z,87
2023-01-10T03:22:49.961Z,87
2023-01-10T03:24:46.716Z,87
2023-01-10T03:28:46.675Z,87
2023-01-10T03:30:46.800Z,87
2023-01-10T03:32:48.456Z,87
2023-01-10T03:36:46.783Z,87
2023-01-10T03:38:46.778Z,87
2023-01-10T03:40:47.016Z,87
2023-01-10T03:42:46.796Z,88
2023-01-10T03:48:46.867Z,88
2023-01-10T03:50:46.872Z,88
2023-01-10T03:52:46.804Z,88
2023-01-10T03:54:46.867Z,88
2023-01-10T03:56:46.793Z,88
2023-01-10T03:58:46.848Z,88
2023-01-10T04:00:53.335Z,88
2023-01-10T04:02:46.690Z,88
2023-01-10T04:04:46.848Z,88
2023-01-10T04:06:46.735Z,88
2023-01-10T04:08:46.767Z,88
2023-01-10T04:10:46.802Z,88
2023-01-10T04:12:46.845Z,88
2023-01-10T04:14:46.792Z,88
2023-01-10T04:16:48.365Z,88
2023-01-10T04:18:46.820Z,88
2023-01-10T04:20:46.780Z,88
2023-01-10T04:22:46.728Z,88
2023-01-10T04:24:46.670Z,89
2023-01-10T04:26:47.158Z,89
2023-01-10T04:28:46.796Z,89
2023-01-10T04:30:48.405Z,89
2023-01-10T04:32:49.628Z,89
2023-01-10T04:34:46.710Z,89
2023-01-10T04:36:50.639Z,89
2023-01-10T04:38:46.770Z,89
2023-01-10T04:40:46.773Z,90
2023-01-10T04:42:48.468Z,90
2023-01-10T04:44:46.722Z,90
2023-01-10T04:46:46.788Z,90
2023-01-10T04:48:46.783Z,90
2023-01-10T04:52:46.818Z,90
2023-01-10T04:54:46.758Z,90
2023-01-10T04:56:46.845Z,90
2023-01-10T04:58:46.760Z,90
2023-01-10T05:00:50.006Z,90
2023-01-10T05:02:46.641Z,90
2023-01-10T05:04:49.980Z,90
2023-01-10T05:06:46.817Z,90
2023-01-10T05:08:46.951Z,90
2023-01-10T05:10:49.792Z,90
2023-01-10T05:12:51.522Z,90
2023-01-10T05:14:46.815Z,90
2023-01-10T05:16:49.972Z,90
2023-01-10T05:18:46.984Z,90
2023-01-10T05:20:46.775Z,90
2023-01-10T05:22:46.774Z,90
2023-01-10T05:24:46.759Z,90
2023-01-10T05:26:45.294Z,90
2023-01-10T05:28:47.090Z,90
2023-01-10T05:30:46.865Z,89
2023-01-10T05:32:49.919Z,90
2023-01-10T05:34:46.786Z,90
2023-01-10T05:38:46.836Z,90
2023-01-10T05:40:46.844Z,90
2023-01-10T05:42:47.087Z,90
2023-01-10T05:44:47.343Z,90
2023-01-10T05:46:46.850Z,90
2023-01-10T05:48:49.991Z,90
2023-01-10T05:50:49.987Z,90
2023-01-10T05:52:46.772Z,90
2023-01-10T05:54:46.831Z,90
2023-01-10T05:56:46.812Z,90
2023-01-10T05:58:47.319Z,90
2023-01-10T06:00:46.880Z,90
2023-01-10T06:02:46.881Z,90
2023-01-10T06:04:47.106Z,90
2023-01-10T06:06:46.803Z,90
2023-01-10T06:08:46.694Z,90
2023-01-10T06:10:46.769Z,90
2023-01-10T06:14:45.275Z,90
2023-01-10T06:16:46.866Z,90
2023-01-10T06:18:46.726Z,90
2023-01-10T06:20:45.278Z,90
2023-01-10T06:22:46.827Z,90
2023-01-10T06:26:46.822Z,90
2023-01-10T06:28:46.833Z,90
2023-01-10T06:30:46.829Z,90
2023-01-10T06:32:47.107Z,90
2023-01-10T06:34:46.778Z,90
2023-01-10T06:36:46.832Z,90
2023-01-10T06:38:47.035Z,90
2023-01-10T06:40:46.759Z,90
2023-01-10T06:42:49.952Z,90
2023-01-10T06:44:49.855Z,90
2023-01-10T06:46:46.824Z,90
2023-01-10T06:48:47.030Z,90
2023-01-10T06:52:47.089Z,90
2023-01-10T06:54:49.990Z,90
2023-01-10T06:56:46.822Z,90
2023-01-10T07:02:46.736Z,90
2023-01-10T07:04:49.757Z,90
2023-01-10T07:06:49.970Z,90
2023-01-10T07:08:49.972Z,90
2023-01-10T07:10:46.786Z,90
2023-01-10T07:12:46.780Z,90
2023-01-10T07:14:46.840Z,90
2023-01-10T07:16:47.096Z,90
2023-01-10T07:20:46.841Z,90
2023-01-10T07:22:47.104Z,90
2023-01-10T07:24:46.831Z,89
2023-01-10T07:26:46.824Z,89
2023-01-10T07:28:46.859Z,89
2023-01-10T07:30:49.991Z,89
2023-01-10T07:32:46.824Z,89
2023-01-10T07:34:49.976Z,89
2023-01-10T07:36:47.223Z,89
2023-01-10T07:38:49.685Z,89
2023-01-10T07:40:46.829Z,89
2023-01-10T07:42:49.931Z,89
2023-01-10T07:44:48.671Z,89
2023-01-10T07:46:46.895Z,89
2023-01-10T07:48:46.912Z,89
2023-01-10T07:52:47.134Z,89
2023-01-10T07:54:46.824Z,89
2023-01-10T07:56:46.826Z,89
2023-01-10T07:58:46.820Z,89
2023-01-10T08:02:47.084Z,89
2023-01-10T08:04:46.592Z,89
2023-01-10T08:06:46.811Z,89
2023-01-10T08:08:49.943Z,88
2023-01-10T08:12:46.807Z,89
2023-01-10T08:14:46.975Z,89
2023-01-10T08:16:46.936Z,89
2023-01-10T08:20:46.832Z,89
2023-01-10T08:22:46.833Z,89
2023-01-10T08:24:46.827Z,89
2023-01-10T08:26:50.037Z,89
2023-01-10T08:28:46.828Z,89
2023-01-10T08:32:50.015Z,89
2023-01-10T08:34:46.811Z,89
2023-01-10T08:36:46.853Z,88
2023-01-10T08:38:46.811Z,89
2023-01-10T08:40:48.405Z,88
2023-01-10T08:44:46.798Z,89
2023-01-10T08:46:46.859Z,89
2023-01-10T08:48:46.607Z,89
2023-01-10T08:50:46.731Z,89
2023-01-10T08:52:49.633Z,89
2023-01-10T08:54:53.144Z,89
2023-01-10T08:56:46.815Z,89
2023-01-10T08:58:46.810Z,89
2023-01-10T09:00:47.123Z,88
2023-01-10T09:02:50.016Z,88
2023-01-10T09:04:46.903Z,88
2023-01-10T09:06:53.189Z,88
2023-01-10T09:10:46.845Z,88
2023-01-10T09:12:46.857Z,88
2023-01-10T09:14:46.729Z,88
2023-01-10T09:16:46.589Z,88
2023-01-10T09:20:46.764Z,87
2023-01-10T09:22:53.108Z,87
2023-01-10T09:24:49.927Z,87
2023-01-10T09:26:50.008Z,87
2023-01-10T09:28:48.789Z,86
2023-01-10T09:30:49.992Z,86
2023-01-10T09:32:46.809Z,86
2023-01-10T09:34:46.846Z,86
2023-01-10T09:36:46.856Z,86
2023-01-10T09:40:48.483Z,86
2023-01-10T09:42:46.871Z,86
2023-01-10T09:44:49.977Z,86
2023-01-10T09:48:46.824Z,86
2023-01-10T09:50:46.866Z,86
2023-01-10T09:52:44.389Z,85
2023-01-10T09:56:53.323Z,86
2023-01-10T09:58:46.914Z,86
2023-01-10T10:00:49.940Z,86
2023-01-10T10:02:46.768Z,86
2023-01-10T10:06:49.084Z,86
2023-01-10T10:08:48.756Z,85
2023-01-10T10:10:50.044Z,85
2023-01-10T10:14:48.565Z,85
2023-01-10T10:16:46.793Z,84
2023-01-10T10:18:46.865Z,84
2023-01-10T10:20:46.518Z,84
2023-01-10T10:22:47.060Z,84
2023-01-10T10:24:46.840Z,84
2023-01-10T10:28:54.823Z,84
2023-01-10T10:30:47.014Z,84
2023-01-10T10:32:49.738Z,84
2023-01-10T10:34:47.164Z,84
2023-01-10T10:36:49.995Z,84
2023-01-10T10:38:46.890Z,84
2023-01-10T10:40:44.073Z,83
2023-01-10T10:42:46.856Z,83
2023-01-10T10:44:48.397Z,83
2023-01-10T10:46:46.856Z,83
2023-01-10T10:48:46.836Z,83
2023-01-10T10:50:46.870Z,82
2023-01-10T10:52:46.852Z,82
2023-01-10T10:54:47.821Z,82
2023-01-10T10:56:48.477Z,83
2023-01-10T10:58:46.759Z,82
2023-01-10T11:00:50.000Z,82
2023-01-10T11:02:46.865Z,82
2023-01-10T11:04:46.900Z,82
2023-01-10T11:08:46.946Z,82
2023-01-10T11:10:46.906Z,83
2023-01-10T11:12:44.364Z,82
2023-01-10T11:14:46.915Z,82
2023-01-10T11:16:46.897Z,82
2023-01-10T11:20:46.759Z,82
2023-01-10T11:22:50.029Z,82
2023-01-10T11:26:46.936Z,82
2023-01-10T11:30:47.142Z,82
2023-01-10T11:32:46.853Z,82
2023-01-10T11:34:48.487Z,82
2023-01-10T11:38:53.449Z,82
2023-01-10T11:40:46.878Z,82
2023-01-10T11:42:46.890Z,81
2023-01-10T11:44:47.175Z,81
2023-01-10T11:46:50.003Z,82
2023-01-10T11:49:05.355Z,82
2023-01-10T11:50:46.853Z,81
2023-01-10T11:52:46.875Z,82
2023-01-10T11:54:46.892Z,81
2023-01-10T11:56:46.905Z,81
2023-01-10T11:58:53.301Z,82
2023-01-10T12:00:46.843Z,82
2023-01-10T12:02:46.852Z,81
2023-01-10T12:04:46.898Z,81
2023-01-10T12:08:46.880Z,81
2023-01-10T12:10:48.586Z,81
2023-01-10T12:12:49.784Z,81
2023-01-10T12:14:46.877Z,81
2023-01-10T12:16:50.054Z,82
2023-01-10T12:18:46.850Z,82
2023-01-10T12:20:49.788Z,82
2023-01-10T12:22:49.700Z,82
2023-01-10T12:24:46.838Z,82
2023-01-10T12:26:46.898Z,82
2023-01-10T12:28:46.823Z,82
2023-01-10T12:30:48.493Z,82
2023-01-10T12:32:46.898Z,82
2023-01-10T12:34:46.793Z,82
2023-01-10T12:36:46.865Z,82
2023-01-10T12:38:46.786Z,82
2023-01-10T12:42:50.070Z,82
2023-01-10T12:44:46.854Z,82
2023-01-10T12:47:05.575Z,82
2023-01-10T12:48:53.417Z,82
2023-01-10T12:50:46.840Z,82
2023-01-10T12:52:46.616Z,81
2023-01-10T12:56:46.916Z,82
2023-01-10T12:58:50.890Z,82
2023-01-10T13:00:48.403Z,81
2023-01-10T13:02:46.956Z,81
2023-01-10T13:04:46.890Z,81
2023-01-10T13:06:46.919Z,81
2023-01-10T13:08:49.916Z,81
2023-01-10T13:10:46.802Z,80
2023-01-10T13:12:49.800Z,80
2023-01-10T13:14:46.877Z,81
2023-01-10T13:16:47.087Z,81
2023-01-10T13:18:50.041Z,81
2023-01-10T13:20:50.486Z,80
2023-01-10T13:22:50.085Z,80
2023-01-10T13:24:50.052Z,80
2023-01-10T13:26:49.789Z,80
2023-01-10T13:28:46.883Z,80
2023-01-10T13:34:53.064Z,80
2023-01-10T13:36:46.860Z,80
2023-01-10T13:38:47.142Z,79
2023-01-10T13:40:47.405Z,79
2023-01-10T13:42:46.960Z,79
2023-01-10T13:44:50.093Z,80
2023-01-10T13:46:50.064Z,80
2023-01-10T13:50:46.880Z,80
2023-01-10T13:52:46.915Z,81
2023-01-10T13:54:49.730Z,81
2023-01-10T13:56:46.777Z,79
2023-01-10T13:58:44.406Z,80
2023-01-10T14:00:49.764Z,80
2023-01-10T14:02:49.963Z,79
2023-01-10T14:04:46.818Z,79
2023-01-10T14:06:46.794Z,79
2023-01-10T14:08:46.885Z,79
2023-01-10T14:10:46.903Z,78
2023-01-10T14:12:46.894Z,78
2023-01-10T14:14:47.370Z,78
2023-01-10T14:16:46.830Z,78
2023-01-10T14:18:46.901Z,80
2023-01-10T14:20:47.643Z,81
2023-01-10T14:22:46.863Z,80
2023-01-10T14:24:45.360Z,78
2023-01-10T14:26:46.875Z,78
2023-01-10T14:28:47.137Z,78
2023-01-10T14:30:46.857Z,78
2023-01-10T14:32:46.930Z,78
2023-01-10T14:34:46.916Z,78
2023-01-10T14:36:45.419Z,78
2023-01-10T14:38:46.908Z,78
2023-01-10T14:40:46.867Z,78
2023-01-10T14:42:46.923Z,77
2023-01-10T14:44:46.931Z,77
2023-01-10T14:48:46.836Z,77
2023-01-10T14:50:53.490Z,77
2023-01-10T14:52:52.014Z,77
2023-01-10T14:54:46.943Z,78
2023-01-10T14:56:46.917Z,78
2023-01-10T14:58:46.903Z,78
2023-01-10T15:00:53.550Z,77
2023-01-10T15:02:46.797Z,77
2023-01-10T15:04:50.088Z,77
2023-01-10T15:06:50.041Z,77
2023-01-10T15:08:47.123Z,77
2023-01-10T15:10:50.336Z,77
2023-01-10T15:12:46.786Z,78
2023-01-10T15:14:53.262Z,78
2023-01-10T15:16:50.067Z,77
2023-01-10T15:20:46.877Z,77
2023-01-10T15:22:50.074Z,77
2023-01-10T15:24:47.358Z,77
2023-01-10T15:26:46.797Z,77
2023-01-10T15:30:50.047Z,77
2023-01-10T15:32:46.886Z,77
2023-01-10T15:34:46.888Z,77
2023-01-10T15:36:46.940Z,77
2023-01-10T15:38:46.807Z,77
2023-01-10T15:40:46.892Z,77
2023-01-10T15:42:48.428Z,78
2023-01-10T15:44:46.878Z,78
2023-01-10T15:46:51.104Z,78
2023-01-10T15:48:50.048Z,77
2023-01-10T15:50:46.877Z,78
2023-01-10T15:52:50.029Z,78
2023-01-10T15:54:49.881Z,78
2023-01-10T15:56:46.878Z,79
2023-01-10T15:58:47.379Z,79
2023-01-10T16:00:48.520Z,78
2023-01-10T16:04:46.964Z,79
2023-01-10T16:06:46.907Z,79
2023-01-10T16:08:47.201Z,79
2023-01-10T16:10:53.387Z,79
2023-01-10T16:12:46.921Z,80
2023-01-10T16:14:49.797Z,80
2023-01-10T16:16:48.520Z,80
2023-01-10T16:18:46.893Z,80
2023-01-10T16:20:46.788Z,80
2023-01-10T16:22:47.135Z,80
2023-01-10T16:24:50.043Z,80
2023-01-10T16:26:46.941Z,79
2023-01-10T16:28:46.942Z,80
2023-01-10T16:30:46.981Z,80
2023-01-10T16:32:46.897Z,80
2023-01-10T16:34:52.917Z,80
2023-01-10T16:36:49.678Z,80
2023-01-10T16:38:46.541Z,80
2023-01-10T16:40:46.828Z,80
2023-01-10T16:42:47.209Z,80
2023-01-10T16:44:50.045Z,80
2023-01-10T16:46:50.031Z,80
2023-01-10T16:48:47.204Z,80
2023-01-10T16:50:46.890Z,80
2023-01-10T16:52:46.680Z,80
2023-01-10T16:56:46.847Z,80
2023-01-10T16:58:46.892Z,80
2023-01-10T17:00:47.017Z,80
2023-01-10T17:02:46.933Z,80
2023-01-10T17:06:46.910Z,80
2023-01-10T17:08:44.143Z,81
2023-01-10T17:10:46.895Z,81
2023-01-10T17:12:50.375Z,81
2023-01-10T17:14:47.330Z,81
2023-01-10T17:16:50.064Z,81
2023-01-10T17:18:47.017Z,81
2023-01-10T17:20:46.835Z,82
2023-01-10T17:22:46.854Z,82
2023-01-10T17:24:46.695Z,82
2023-01-10T17:26:46.907Z,82
2023-01-10T17:28:48.480Z,82
2023-01-10T17:30:46.961Z,83
2023-01-10T17:32:46.795Z,83
2023-01-10T17:34:46.880Z,83
2023-01-10T17:36:46.728Z,83
2023-01-10T17:38:44.069Z,83
2023-01-10T17:40:49.806Z,83
2023-01-10T17:42:46.909Z,83
2023-01-10T17:44:46.956Z,83
2023-01-10T17:48:47.309Z,83
2023-01-10T17:50:50.455Z,83
2023-01-10T17:52:46.967Z,83
2023-01-10T17:54:46.958Z,83
2023-01-10T17:56:50.537Z,83
2023-01-10T17:58:49.825Z,83
2023-01-10T18:00:47.031Z,83
2023-01-10T18:02:46.977Z,83
2023-01-10T18:04:47.272Z,83
2023-01-10T18:06:50.352Z,82
2023-01-10T18:08:46.924Z,83
2023-01-10T18:12:46.911Z,83
2023-01-10T18:14:46.918Z,83
2023-01-10T18:16:49.929Z,83
2023-01-10T18:18:47.140Z,83
2023-01-10T18:20:46.697Z,84
2023-01-10T18:22:47.174Z,84
2023-01-10T18:26:46.939Z,83
2023-01-10T18:28:50.276Z,83
2023-01-10T18:30:46.920Z,83
2023-01-10T18:36:07.932Z,83
2023-01-10T18:40:12.779Z,84
2023-01-10T18:42:04.276Z,83
2023-01-10T18:44:04.292Z,83
2023-01-10T18:48:10.784Z,83
2023-01-10T18:50:04.922Z,84
2023-01-10T18:54:07.503Z,84
2023-01-10T18:56:04.193Z,84
2023-01-10T19:00:04.342Z,84
2023-01-10T19:02:07.688Z,83
2023-01-10T19:06:04.555Z,84
2023-01-10T19:08:04.431Z,84
2023-01-10T19:12:05.818Z,84
2023-01-10T19:14:09.761Z,84
2023-01-10T19:18:03.883Z,84
2023-01-10T19:20:01.995Z,85
2023-01-10T19:22:11.954Z,85
2023-01-10T19:24:11.075Z,85
2023-01-10T19:26:04.146Z,85
2023-01-10T19:30:07.385Z,85
2023-01-10T19:32:04.314Z,85
2023-01-10T19:36:04.312Z,85
2023-01-10T19:38:04.272Z,85
2023-01-10T19:42:04.158Z,85
2023-01-10T19:44:04.490Z,85
2023-01-10T19:48:03.807Z,85
2023-01-10T19:50:01.370Z,86
2023-01-10T19:52:13.701Z,86
2023-01-10T19:54:01.525Z,86
2023-01-10T19:56:04.628Z,86
2023-01-10T20:00:08.822Z,86
2023-01-10T20:02:10.788Z,85
2023-01-10T20:06:05.619Z,85
2023-01-10T20:08:02.805Z,85
2023-01-10T20:12:04.331Z,85
2023-01-10T20:14:10.738Z,85
2023-01-10T20:18:07.403Z,85
2023-01-10T20:20:04.294Z,85
2023-01-10T20:22:06.400Z,85
2023-01-10T20:24:06.729Z,85
2023-01-10T20:26:05.920Z,85
2023-01-10T20:30:10.075Z,84
2023-01-10T20:32:04.335Z,84
2023-01-10T20:36:01.750Z,84
2023-01-10T20:38:02.698Z,84
2023-01-10T20:44:07.152Z,83
2023-01-10T20:48:08.949Z,83
2023-01-10T20:50:07.619Z,83
2023-01-10T20:54:04.478Z,83
2023-01-10T20:56:04.608Z,83
2023-01-10T21:00:06.723Z,83
2023-01-10T21:02:07.870Z,83
2023-01-10T21:06:03.106Z,83
2023-01-10T21:08:04.726Z,82
2023-01-10T21:12:21.981Z,82
2023-01-10T21:14:03.281Z,82
2023-01-10T21:18:05.416Z,82
2023-01-10T21:20:04.508Z,82
2023-01-10T21:24:04.395Z,82
2023-01-10T21:26:01.307Z,82
2023-01-10T21:30:04.381Z,82
2023-01-10T21:32:04.281Z,81
2023-01-10T21:36:04.325Z,81
2023-01-10T21:38:09.990Z,81
2023-01-10T21:40:12.432Z,81
2023-01-10T21:42:04.146Z,81
2023-01-10T21:44:02.990Z,81
2023-01-10T21:48:04.221Z,81
2023-01-10T21:50:06.057Z,81
2023-01-10T21:54:03.884Z,81
2023-01-10T21:56:04.502Z,81
2023-01-10T21:58:12.770Z,81
2023-01-10T22:00:04.654Z,81
2023-01-10T22:02:13.969Z,81
2023-01-10T22:06:01.031Z,80
2023-01-10T22:08:04.375Z,81
2023-01-10T22:12:09.519Z,80
2023-01-10T22:14:04.494Z,81
2023-01-10T22:18:04.260Z,80
2023-01-10T22:20:06.207Z,81
2023-01-10T22:22:04.045Z,80
2023-01-10T22:24:00.959Z,80
2023-01-10T22:26:03.677Z,80
2023-01-10T22:28:13.108Z,80
2023-01-10T22:30:04.391Z,80
2023-01-10T22:32:05.552Z,80
2023-01-10T22:36:07.689Z,80
2023-01-10T22:38:04.302Z,80
2023-01-10T22:42:06.222Z,79
2023-01-10T22:44:04.393Z,79
2023-01-10T22:48:04.425Z,78
2023-01-10T22:50:04.461Z,79
2023-01-10T22:54:07.509Z,79
2023-01-10T22:56:01.572Z,79
2023-01-10T23:00:04.846Z,79
2023-01-10T23:02:09.269Z,79
2023-01-10T23:06:04.483Z,79
2023-01-10T23:08:04.425Z,79
2023-01-10T23:12:03.963Z,79
2023-01-10T23:14:14.002Z,80
2023-01-10T23:18:04.388Z,80
2023-01-10T23:20:02.828Z,80
2023-01-10T23:24:06.046Z,81
2023-01-10T23:26:04.490Z,82
2023-01-10T23:30:04.785Z,82
2023-01-10T23:32:07.607Z,82
2023-01-10T23:36:04.247Z,82
2023-01-10T23:38:04.600Z,83
2023-01-10T23:42:04.553Z,83
2023-01-10T23:44:04.639Z,83
2023-01-10T23:48:04.467Z,84
2023-01-10T23:50:01.237Z,84
2023-01-10T23:52:13.377Z,84
2023-01-10T23:54:07.801Z,84
2023-01-10T23:56:04.448Z,84
